Time;durP1;ratioP1;P1;durP2;ratioP2;P2;SDS_P1;SDS_P2;PMS_P1;PMS_P2;Temp;Humidity;BMP_temperature;BMP_pressure;BME280_temperature;BME280_humidity;BME280_pressure;Samples;Min_cycle;Max_cycle;Signal;HPM_P1;HPM_P2
2022/04/09 00:00:10;;;;;;;24.48;10.82;;;;;;;3.55;82.39;100295.16;5093555;28;20073;-53
2022/04/09 00:02:35;;;;;;;21.70;10.30;;;;;;;3.53;81.79;100302.81;5093445;28;20028;-54
2022/04/09 00:05:00;;;;;;;23.85;10.20;;;;;;;3.50;82.28;100302.53;5093387;28;20046;-52
2022/04/09 00:07:25;;;;;;;19.67;9.68;;;;;;;3.55;81.76;100310.72;5093284;28;20044;-54
2022/04/09 00:09:51;;;;;;;23.48;11.57;;;;;;;3.42;82.70;100323.88;5093385;28;20036;-54
2022/04/09 00:12:16;;;;;;;21.33;9.50;;;;;;;3.55;81.61;100327.97;5075390;28;20028;-54
2022/04/09 00:14:41;;;;;;;23.15;10.90;;;;;;;3.46;82.37;100329.59;5093361;28;20024;-53
2022/04/09 00:17:09;;;;;;;23.05;11.30;;;;;;;3.42;82.21;100334.81;5093263;28;20032;-55
2022/04/09 00:19:35;;;;;;;21.48;10.10;;;;;;;3.37;83.27;100336.69;5093278;28;20157;-55
2022/04/09 00:22:01;;;;;;;20.40;10.60;;;;;;;3.36;83.39;100355.00;5093380;28;20028;-54
2022/04/09 00:24:27;;;;;;;23.92;11.00;;;;;;;3.26;83.16;100355.81;5093225;28;20024;-54
2022/04/09 00:26:52;;;;;;;24.10;10.52;;;;;;;3.23;82.90;100358.25;5093435;28;20035;-54
2022/04/09 00:29:17;;;;;;;22.10;11.13;;;;;;;3.22;83.18;100362.09;5093183;28;20024;-52
2022/04/09 00:31:42;;;;;;;23.15;10.70;;;;;;;3.33;82.23;100362.94;5093444;28;20063;-52
2022/04/09 00:34:08;;;;;;;22.75;9.80;;;;;;;3.27;82.08;100373.84;5093146;28;20016;-51
2022/04/09 00:36:33;;;;;;;22.60;10.38;;;;;;;3.23;83.39;100372.75;5093466;28;20028;-51
2022/04/09 00:38:58;;;;;;;22.90;10.90;;;;;;;3.23;82.90;100380.13;5093532;28;20145;-55
2022/04/09 00:41:24;;;;;;;21.40;9.90;;;;;;;3.28;82.93;100377.41;5093259;28;20023;-50
2022/04/09 00:43:49;;;;;;;23.17;10.10;;;;;;;3.32;82.24;100377.69;5093113;28;20111;-50
2022/04/09 00:46:14;;;;;;;23.08;9.13;;;;;;;3.27;82.58;100387.53;5092998;28;20024;-51
2022/04/09 00:48:42;;;;;;;20.98;8.80;;;;;;;3.25;82.63;100389.69;5092925;28;20047;-55
2022/04/09 00:51:07;;;;;;;19.33;9.25;;;;;;;3.26;82.39;100388.63;5093142;28;20041;-56
2022/04/09 00:53:41;;;;;;;22.20;9.93;;;;;;;3.28;82.64;100396.53;5092777;28;20032;-55
2022/04/09 00:56:16;;;;;;;22.15;10.20;;;;;;;3.23;82.29;100399.28;5092950;28;20435;-54
2022/04/09 00:59:11;;;;;;;27.55;10.02;;;;;;;3.22;81.48;100403.09;5092996;28;20055;-53
2022/04/09 01:01:38;;;;;;;18.45;9.35;;;;;;;3.27;81.64;100411.28;5090632;28;20046;-55
2022/04/09 01:04:11;;;;;;;19.65;9.40;;;;;;;3.35;81.44;100413.53;5093268;28;20028;-55
2022/04/09 01:06:37;;;;;;;21.52;9.25;;;;;;;3.25;81.29;100418.97;5093094;28;20044;-51
2022/04/09 01:09:05;;;;;;;17.90;9.10;;;;;;;3.31;80.95;100426.09;5092959;28;20020;-54
2022/04/09 01:11:31;;;;;;;24.40;10.38;;;;;;;3.24;81.12;100423.59;5092881;28;20039;-52
2022/04/09 01:13:57;;;;;;;17.73;9.18;;;;;;;3.26;80.72;100423.31;5092612;28;20338;-54
2022/04/09 01:16:24;;;;;;;22.30;10.38;;;;;;;3.15;81.61;100427.13;5092951;28;20046;-51
2022/04/09 01:18:49;;;;;;;19.13;9.88;;;;;;;3.27;80.92;100428.53;5093429;28;20020;-55
2022/04/09 01:21:15;;;;;;;20.23;9.55;;;;;;;3.25;80.96;100429.91;5093003;28;20066;-56
2022/04/09 01:23:40;;;;;;;20.60;9.50;;;;;;;3.33;80.96;100448.53;5092365;28;20024;-54
2022/04/09 01:26:06;;;;;;;22.10;9.88;;;;;;;3.30;81.57;100438.13;5092472;28;20029;-54
2022/04/09 01:28:32;;;;;;;21.65;10.18;;;;;;;3.30;81.08;100445.50;5095670;28;20103;-53
2022/04/09 01:30:57;;;;;;;21.33;10.00;;;;;;;3.25;81.81;100446.31;5096127;28;20028;-54
2022/04/09 01:33:24;;;;;;;22.35;9.30;;;;;;;3.19;82.52;100450.09;5096488;28;20024;-53
2022/04/09 01:35:50;;;;;;;21.17;10.07;;;;;;;3.15;81.80;100465.41;5078330;28;20036;-54
2022/04/09 01:38:16;;;;;;;22.45;10.15;;;;;;;3.17;82.69;100469.50;5096322;28;20024;-52
2022/04/09 01:40:41;;;;;;;25.30;10.35;;;;;;;3.11;82.95;100465.09;5096510;28;20031;-54
2022/04/09 01:43:07;;;;;;;24.42;10.88;;;;;;;3.12;82.53;100474.91;5096723;28;20032;-49
2022/04/09 01:45:33;;;;;;;22.25;10.43;;;;;;;3.06;82.85;100476.84;5096444;28;20024;-53
2022/04/09 01:47:58;;;;;;;26.40;11.40;;;;;;;3.05;83.32;100475.19;5096367;28;20020;-52
2022/04/09 01:50:27;;;;;;;22.52;10.23;;;;;;;3.07;82.38;100494.03;5095365;28;20101;-50
2022/04/09 01:52:53;;;;;;;24.10;10.50;;;;;;;3.02;82.45;100489.38;5096339;28;20016;-51
2022/04/09 01:55:19;;;;;;;23.83;10.50;;;;;;;2.98;83.28;100499.16;5095995;28;20050;-51
2022/04/09 01:57:44;;;;;;;24.00;10.68;;;;;;;2.96;82.87;100504.09;5095931;28;20429;-52
2022/04/09 02:00:12;;;;;;;22.95;11.50;;;;;;;2.85;82.76;100491.44;5096453;28;20425;-52
2022/04/09 02:02:37;;;;;;;24.38;11.27;;;;;;;2.84;83.81;100512.47;5096090;28;20062;-52
2022/04/09 02:05:03;;;;;;;21.23;10.25;;;;;;;2.82;83.62;100514.66;5096243;28;20028;-52
2022/04/09 02:07:28;;;;;;;21.25;10.82;;;;;;;2.80;83.45;100516.81;5095745;28;20060;-51
2022/04/09 02:09:54;;;;;;;24.20;10.13;;;;;;;2.74;83.27;100518.69;5095919;28;20039;-54
2022/04/09 02:12:19;;;;;;;23.80;10.57;;;;;;;2.74;83.64;100526.06;5095727;28;20114;-53
2022/04/09 02:14:45;;;;;;;23.80;10.68;;;;;;;2.77;83.01;100523.66;5096049;28;20042;-54
2022/04/09 02:17:11;;;;;;;24.35;11.00;;;;;;;2.75;83.13;100525.81;5095715;28;20046;-54
2022/04/09 02:19:36;;;;;;;24.52;10.73;;;;;;;2.72;83.81;100537.25;5095643;28;20089;-53
2022/04/09 02:22:02;;;;;;;25.27;10.82;;;;;;;2.69;84.61;100534.22;5095718;28;20216;-53
2022/04/09 02:24:27;;;;;;;24.70;10.95;;;;;;;2.70;83.92;100535.88;5094810;28;20028;-54
2022/04/09 02:26:52;;;;;;;27.48;11.93;;;;;;;2.65;84.01;100545.66;5095396;28;20152;-52
2022/04/09 02:29:18;;;;;;;25.10;11.35;;;;;;;2.69;83.65;100542.41;5095682;28;20031;-55
2022/04/09 02:31:43;;;;;;;26.55;10.90;;;;;;;2.70;84.11;100547.59;5095418;28;20102;-53
2022/04/09 02:34:08;;;;;;;25.45;10.93;;;;;;;2.69;83.65;100553.34;5095370;28;20391;-54
2022/04/09 02:36:35;;;;;;;19.70;10.32;;;;;;;2.71;83.94;100556.63;5095470;28;20099;-53
2022/04/09 02:39:01;;;;;;;23.60;10.05;;;;;;;2.77;83.88;100561.88;5094671;28;20496;-54
2022/04/09 02:41:28;;;;;;;22.88;11.10;;;;;;;2.75;84.18;100563.22;5095048;28;20028;-52
2022/04/09 02:43:53;;;;;;;23.25;11.23;;;;;;;2.75;84.06;100576.88;5096058;28;20484;-54
2022/04/09 02:46:19;;;;;;;24.88;10.85;;;;;;;2.82;83.20;100574.78;5094909;28;20482;-53
2022/04/09 02:48:44;;;;;;;19.60;10.13;;;;;;;2.76;82.87;100578.53;5095096;28;20038;-50
2022/04/09 02:51:09;;;;;;;22.98;9.90;;;;;;;2.74;83.52;100588.91;5095620;28;20028;-53
2022/04/09 02:53:35;;;;;;;21.63;10.20;;;;;;;2.78;82.93;100590.03;5094474;28;20032;-54
2022/04/09 02:56:00;;;;;;;21.75;10.70;;;;;;;2.76;83.23;100595.75;5094937;28;20499;-53
2022/04/09 02:58:25;;;;;;;22.23;9.70;;;;;;;2.75;82.61;100587.78;5094438;28;20097;-53
2022/04/09 03:00:50;;;;;;;20.20;9.65;;;;;;;2.77;82.78;100593.84;5094503;28;20042;-55
2022/04/09 03:03:16;;;;;;;22.20;9.07;;;;;;;2.84;82.53;100602.63;5094710;28;20039;-54
2022/04/09 03:05:41;;;;;;;19.63;8.98;;;;;;;2.85;82.40;100600.75;5094531;28;20060;-52
2022/04/09 03:08:07;;;;;;;19.63;9.25;;;;;;;2.94;81.87;100615.56;5094441;28;20575;-52
2022/04/09 03:10:32;;;;;;;18.08;8.90;;;;;;;2.96;81.36;100606.00;5094016;28;20020;-53
2022/04/09 03:12:58;;;;;;;17.90;9.48;;;;;;;3.02;80.97;100612.34;5094159;28;20027;-54
2022/04/09 03:15:23;;;;;;;20.42;9.43;;;;;;;2.97;81.02;100617.78;5094350;28;20028;-53
2022/04/09 03:17:49;;;;;;;20.75;8.30;;;;;;;3.04;80.47;100623.00;5094187;28;20107;-53
2022/04/09 03:20:14;;;;;;;16.52;9.02;;;;;;;2.93;80.60;100624.84;5094395;28;20024;-53
2022/04/09 03:22:46;;;;;;;20.80;8.98;;;;;;;3.02;80.61;100628.75;5094643;28;20115;-54
2022/04/09 03:25:12;;;;;;;17.85;8.90;;;;;;;3.07;80.10;100630.69;5094046;28;20065;-53
2022/04/09 03:27:38;;;;;;;22.75;9.10;;;;;;;2.97;80.41;100631.47;5094373;28;20028;-54
2022/04/09 03:30:04;;;;;;;20.02;8.77;;;;;;;3.00;80.50;100639.13;5094149;28;20043;-54
2022/04/09 03:32:30;;;;;;;19.65;8.88;;;;;;;2.89;80.87;100646.41;5093821;28;20028;-51
2022/04/09 03:34:57;;;;;;;19.63;8.98;;;;;;;2.90;81.05;100645.31;5094229;28;20031;-53
2022/04/09 03:37:22;;;;;;;20.45;9.60;;;;;;;2.86;81.17;100646.91;5094075;28;20020;-52
2022/04/09 03:39:47;;;;;;;16.50;9.05;;;;;;;2.83;80.66;100643.88;5094289;28;20365;-54
2022/04/09 03:42:12;;;;;;;16.13;8.65;;;;;;;2.86;80.22;100646.09;5094140;28;20058;-52
2022/04/09 03:44:38;;;;;;;15.35;8.48;;;;;;;2.89;81.03;100645.56;5094518;28;20020;-52
2022/04/09 03:47:05;;;;;;;19.75;9.05;;;;;;;2.82;81.88;100651.25;5093702;28;20040;-53
2022/04/09 03:49:31;;;;;;;22.73;10.40;;;;;;;2.77;81.50;100659.41;5093244;28;20024;-53
2022/04/09 03:51:58;;;;;;;24.50;11.10;;;;;;;2.74;81.74;100654.47;5093618;28;20047;-53
2022/04/09 03:54:23;;;;;;;20.27;10.20;;;;;;;2.69;81.61;100657.13;5093915;28;20028;-50
2022/04/09 03:56:49;;;;;;;18.92;9.65;;;;;;;2.62;81.47;100666.38;5093943;28;20539;-53
2022/04/09 03:59:15;;;;;;;20.45;9.30;;;;;;;2.57;82.31;100663.56;5093451;28;20527;-53
2022/04/09 04:01:43;;;;;;;20.30;9.73;;;;;;;2.49;82.57;100666.75;5093671;28;20111;-50
2022/04/09 04:04:10;;;;;;;19.83;9.60;;;;;;;2.45;82.38;100671.09;5093637;28;20020;-53
2022/04/09 04:06:35;;;;;;;19.85;9.50;;;;;;;2.37;83.17;100680.56;5093823;28;20131;-53
2022/04/09 04:09:00;;;;;;;19.42;9.55;;;;;;;2.40;83.01;100674.59;5093534;28;20107;-54
2022/04/09 04:11:26;;;;;;;22.45;9.85;;;;;;;2.35;83.33;100680.00;5093632;28;20028;-53
2022/04/09 04:13:51;;;;;;;20.23;9.77;;;;;;;2.27;83.36;100683.97;5093325;28;20526;-53
2022/04/09 04:16:16;;;;;;;20.38;9.77;;;;;;;2.30;83.54;100691.66;5093375;28;20448;-52
2022/04/09 04:18:42;;;;;;;22.15;10.00;;;;;;;2.22;83.90;100694.84;5093559;28;20108;-54
2022/04/09 04:21:08;;;;;;;18.33;8.77;;;;;;;2.23;83.84;100701.97;5093347;28;20460;-53
2022/04/09 04:23:33;;;;;;;19.83;9.50;;;;;;;2.22;84.24;100700.31;5093175;28;20020;-50
2022/04/09 04:25:59;;;;;;;19.77;9.07;;;;;;;2.22;84.20;100705.78;5092976;28;20024;-53
2022/04/09 04:28:24;;;;;;;22.42;9.68;;;;;;;2.21;83.97;100708.75;5093540;28;20069;-51
2022/04/09 04:30:49;;;;;;;20.42;10.45;;;;;;;2.21;84.31;100716.94;5093188;28;20031;-52
2022/04/09 04:33:14;;;;;;;22.48;9.82;;;;;;;2.19;84.24;100709.00;5092532;28;20105;-51
2022/04/09 04:35:40;;;;;;;22.08;10.50;;;;;;;2.17;84.04;100711.19;5093237;28;20047;-53
2022/04/09 04:38:05;;;;;;;21.73;10.07;;;;;;;2.19;84.87;100717.19;5093298;28;20024;-53
2022/04/09 04:40:30;;;;;;;17.65;9.90;;;;;;;2.20;83.71;100720.75;5093483;28;20024;-53
2022/04/09 04:42:56;;;;;;;19.30;10.07;;;;;;;2.16;83.90;100731.34;5092776;28;20051;-53
2022/04/09 04:45:21;;;;;;;20.83;10.45;;;;;;;2.15;85.31;100722.31;5093297;28;20089;-53
2022/04/09 04:47:48;;;;;;;18.80;9.95;;;;;;;2.13;84.53;100727.19;5093106;28;20452;-55
2022/04/09 04:50:15;;;;;;;21.25;9.38;;;;;;;2.11;84.22;100743.03;5093213;28;20028;-51
2022/04/09 04:52:41;;;;;;;22.42;10.32;;;;;;;2.11;84.55;100743.03;5093032;28;20031;-52
2022/04/09 04:55:08;;;;;;;22.48;10.15;;;;;;;2.11;84.27;100745.75;5093116;28;20372;-55
2022/04/09 04:57:47;;;;;;;21.95;10.40;;;;;;;2.03;84.76;100735.28;5093073;28;20047;-54
2022/04/09 05:00:16;;;;;;;21.38;11.20;;;;;;;2.05;84.46;100745.94;5092813;28;20056;-53
2022/04/09 05:02:41;;;;;;;21.23;10.65;;;;;;;2.04;84.27;100753.28;5096287;28;20024;-55
2022/04/09 05:05:07;;;;;;;20.65;10.52;;;;;;;2.01;84.56;100754.59;5097083;28;20020;-53
2022/04/09 05:07:50;;;;;;;20.83;11.60;;;;;;;2.12;84.01;100752.03;5096556;28;20052;-54
2022/04/09 05:10:18;;;;;;;18.30;9.23;;;;;;;2.05;84.50;100760.38;5079158;28;20028;-53
2022/04/09 05:12:44;;;;;;;19.65;10.07;;;;;;;2.09;84.74;100767.00;5097146;28;20070;-51
2022/04/09 05:15:12;;;;;;;20.25;9.68;;;;;;;2.08;84.92;100765.34;5096965;28;20028;-55
2022/04/09 05:17:38;;;;;;;20.27;9.68;;;;;;;2.10;84.16;100776.00;5096707;28;20147;-52
2022/04/09 05:20:06;;;;;;;19.42;9.60;;;;;;;2.12;84.23;100782.88;5097110;28;20036;-55
2022/04/09 05:22:31;;;;;;;22.95;10.60;;;;;;;2.13;84.93;100787.25;5096918;28;20031;-55
2022/04/09 05:24:57;;;;;;;23.45;10.10;;;;;;;2.14;84.34;100796.28;5096873;28;20028;-53
2022/04/09 05:27:23;;;;;;;22.08;9.57;;;;;;;2.14;84.38;100797.09;5096597;28;20420;-55
2022/04/09 05:29:48;;;;;;;19.15;9.00;;;;;;;2.22;84.84;100797.75;5096721;28;20035;-56
2022/04/09 05:32:14;;;;;;;18.98;9.15;;;;;;;2.24;84.22;100801.88;5096209;28;20032;-55
2022/04/09 05:34:39;;;;;;;18.83;9.82;;;;;;;2.29;83.89;100815.59;5096470;28;20046;-52
2022/04/09 05:37:05;;;;;;;21.17;9.68;;;;;;;2.33;83.34;100805.84;5095987;28;20059;-52
2022/04/09 05:39:30;;;;;;;16.73;9.07;;;;;;;2.38;83.66;100823.34;5096554;28;20474;-55
2022/04/09 05:41:56;;;;;;;18.20;9.27;;;;;;;2.41;83.71;100820.94;5093221;28;20099;-54
2022/04/09 05:44:21;;;;;;;22.88;9.90;;;;;;;2.42;83.46;100821.78;5086874;28;20016;-54
2022/04/09 05:46:46;;;;;;;18.30;8.98;;;;;;;2.43;83.55;100832.44;5086042;28;20033;-54
2022/04/09 05:49:12;;;;;;;20.30;8.80;;;;;;;2.45;82.88;100837.66;5085341;28;20332;-56
2022/04/09 05:51:37;;;;;;;18.98;9.63;;;;;;;2.43;82.94;100843.34;5086866;28;20028;-56
2022/04/09 05:54:04;;;;;;;18.90;9.48;;;;;;;2.41;82.76;100853.69;5085338;28;20020;-55
2022/04/09 05:56:29;;;;;;;14.70;8.48;;;;;;;2.42;83.74;100849.09;5085517;28;20462;-54
2022/04/09 05:58:54;;;;;;;19.98;9.57;;;;;;;2.45;82.96;100851.31;5092453;28;20111;-55
2022/04/09 06:01:20;;;;;;;19.17;9.02;;;;;;;2.46;83.06;100852.94;5095977;28;20020;-54
2022/04/09 06:03:45;;;;;;;17.63;9.52;;;;;;;2.54;82.91;100843.50;5095882;28;20073;-53
2022/04/09 06:06:11;;;;;;;19.63;9.05;;;;;;;2.55;82.84;100867.81;5095850;28;20131;-55
2022/04/09 06:08:37;;;;;;;19.23;9.43;;;;;;;2.59;82.43;100862.72;5095888;28;20032;-53
2022/04/09 06:11:02;;;;;;;18.80;9.15;;;;;;;2.61;82.93;100872.31;5096127;28;20053;-51
2022/04/09 06:13:27;;;;;;;17.17;8.88;;;;;;;2.67;82.31;100870.47;5094597;28;20028;-51
2022/04/09 06:15:53;;;;;;;20.13;9.35;;;;;;;2.83;82.39;100874.22;5096004;28;20487;-54
2022/04/09 06:18:19;;;;;;;19.25;9.07;;;;;;;2.93;82.18;100881.72;5088284;28;20024;-52
2022/04/09 06:20:44;;;;;;;20.33;9.18;;;;;;;3.08;82.17;100889.28;5085336;28;20024;-53
2022/04/09 06:23:10;;;;;;;23.38;8.85;;;;;;;3.32;81.88;100900.78;5086415;28;20451;-54
2022/04/09 06:25:35;;;;;;;19.08;8.57;;;;;;;3.64;80.70;100899.19;5084282;28;20021;-54
2022/04/09 06:28:01;;;;;;;21.30;8.60;;;;;;;3.98;80.11;100916.22;5085433;28;20024;-53
2022/04/09 06:30:26;;;;;;;18.52;8.65;;;;;;;4.29;79.04;100924.69;5085375;28;20032;-52
2022/04/09 06:32:52;;;;;;;20.60;8.90;;;;;;;4.47;78.79;100941.81;5086473;28;20024;-54
2022/04/09 06:35:18;;;;;;;21.83;8.80;;;;;;;4.38;78.99;100946.94;5083998;28;20114;-51
2022/04/09 06:37:43;;;;;;;23.90;8.68;;;;;;;4.24;80.27;100937.53;5085297;28;20020;-53
2022/04/09 06:40:09;;;;;;;19.58;9.13;;;;;;;4.08;79.81;100934.63;5086449;28;20028;-54
2022/04/09 06:42:41;;;;;;;18.80;9.38;;;;;;;3.97;79.47;100941.13;5086177;28;20032;-53
2022/04/09 06:45:08;;;;;;;19.85;9.25;;;;;;;3.70;80.97;100959.19;5085046;28;20050;-53
2022/04/09 06:47:36;;;;;;;23.58;9.55;;;;;;;3.55;82.33;100953.53;5083854;28;20039;-52
2022/04/09 06:50:06;;;;;;;20.70;8.90;;;;;;;3.54;82.70;100982.00;5093712;28;20448;-54
2022/04/09 06:52:31;;;;;;;19.35;9.27;;;;;;;3.46;83.26;100979.69;5094938;28;20030;-52
2022/04/09 06:54:57;;;;;;;21.10;9.30;;;;;;;3.41;84.02;100981.28;5094820;28;20028;-54
2022/04/09 06:57:22;;;;;;;23.45;9.95;;;;;;;3.33;85.17;100973.53;5094803;28;20436;-51
2022/04/09 06:59:48;;;;;;;28.58;11.45;;;;;;;3.31;85.85;100986.63;5094766;28;20024;-52
2022/04/09 07:02:13;;;;;;;18.30;9.60;;;;;;;3.30;85.47;100997.84;5094750;28;20031;-53
2022/04/09 07:04:38;;;;;;;19.77;9.90;;;;;;;3.33;86.07;101020.03;5094748;28;20380;-52
2022/04/09 07:07:03;;;;;;;19.50;10.60;;;;;;;3.25;84.32;101013.06;5076295;28;20056;-54
2022/04/09 07:09:29;;;;;;;17.30;9.50;;;;;;;3.02;84.81;100996.91;5094707;28;20027;-54
2022/04/09 07:11:55;;;;;;;15.30;8.82;;;;;;;2.87;86.01;100994.78;5095168;28;20180;-53
2022/04/09 07:14:20;;;;;;;14.27;8.35;;;;;;;2.91;86.20;100983.09;5094944;28;20024;-54
2022/04/09 07:16:47;;;;;;;17.02;9.05;;;;;;;2.97;86.78;100975.81;5076508;28;20377;-54
2022/04/09 07:19:13;;;;;;;15.13;8.60;;;;;;;3.07;86.88;100989.59;5094502;28;20024;-54
2022/04/09 07:21:38;;;;;;;19.10;9.40;;;;;;;3.19;86.25;100992.22;5094660;28;20020;-54
2022/04/09 07:24:04;;;;;;;18.02;9.07;;;;;;;3.33;86.71;100989.09;5094115;28;20032;-56
2022/04/09 07:26:29;;;;;;;22.17;9.48;;;;;;;3.48;87.46;100985.72;5094206;28;20032;-57
2022/04/09 07:28:54;;;;;;;19.20;9.10;;;;;;;3.64;86.94;100997.69;5093626;28;20645;-54
2022/04/09 07:31:20;;;;;;;20.38;9.85;;;;;;;3.76;86.13;101003.84;5094366;28;20043;-54
2022/04/09 07:33:45;;;;;;;19.33;9.80;;;;;;;3.95;86.80;101009.78;5093955;28;20032;-54
2022/04/09 07:36:10;;;;;;;21.23;10.70;;;;;;;4.01;86.34;101005.22;5094035;28;20036;-54
2022/04/09 07:38:36;;;;;;;19.70;9.95;;;;;;;4.13;86.94;101005.88;5094190;28;20490;-53
2022/04/09 07:41:01;;;;;;;19.52;10.07;;;;;;;4.28;86.93;101007.94;5075494;28;20020;-54
2022/04/09 07:43:26;;;;;;;17.98;9.95;;;;;;;4.45;86.48;101007.81;5093715;28;20043;-55
2022/04/09 07:45:52;;;;;;;21.85;9.57;;;;;;;4.60;85.95;101009.84;5094236;28;20016;-54
2022/04/09 07:48:17;;;;;;;18.80;9.93;;;;;;;4.72;85.26;101006.94;5085149;28;20032;-54
2022/04/09 07:50:42;;;;;;;17.35;9.43;;;;;;;4.82;85.02;101017.94;5089735;28;20036;-53
2022/04/09 07:53:09;;;;;;;21.13;9.80;;;;;;;4.86;85.23;101017.44;5070902;28;20685;-58
2022/04/09 07:55:35;;;;;;;23.00;9.55;;;;;;;4.83;84.04;101014.13;5068382;28;20059;-51
2022/04/09 07:58:01;;;;;;;20.27;9.68;;;;;;;4.87;85.49;101014.41;5067871;28;20040;-53
2022/04/09 08:00:27;;;;;;;17.90;9.20;;;;;;;4.90;83.25;101024.06;5070555;28;20549;-52
2022/04/09 08:02:52;;;;;;;18.42;9.32;;;;;;;4.96;84.28;101023.00;5070447;28;20029;-52
2022/04/09 08:05:18;;;;;;;17.75;9.20;;;;;;;5.06;83.36;101012.09;5070222;28;20035;-54
2022/04/09 08:07:44;;;;;;;16.17;8.75;;;;;;;5.20;83.14;101030.81;5070807;28;20031;-54
2022/04/09 08:10:11;;;;;;;19.88;9.43;;;;;;;5.32;82.98;101031.44;5070796;28;20079;-52
2022/04/09 08:12:37;;;;;;;17.05;9.70;;;;;;;5.46;82.91;101032.63;5070908;28;20028;-53
2022/04/09 08:15:04;;;;;;;20.52;9.63;;;;;;;5.55;81.63;101038.41;5070635;28;20041;-54
2022/04/09 08:17:29;;;;;;;20.35;9.50;;;;;;;5.65;81.11;101037.63;5070798;28;20052;-53
2022/04/09 08:19:56;;;;;;;19.27;9.82;;;;;;;5.83;80.40;101036.31;5070459;28;20493;-55
2022/04/09 08:22:22;;;;;;;22.65;9.85;;;;;;;6.03;81.00;101038.34;5070431;28;20052;-54
2022/04/09 08:24:47;;;;;;;21.70;9.68;;;;;;;6.19;79.59;101039.19;5070660;28;20031;-54
2022/04/09 08:27:13;;;;;;;20.35;9.65;;;;;;;6.38;80.17;101036.75;5070526;28;20036;-54
2022/04/09 08:29:38;;;;;;;23.27;9.10;;;;;;;6.53;79.09;101041.44;5070787;28;20436;-51
2022/04/09 08:32:07;;;;;;;20.95;9.40;;;;;;;6.52;78.20;101036.19;5075791;28;20031;-50
2022/04/09 08:34:37;;;;;;;21.52;9.85;;;;;;;6.42;77.54;101036.22;5090544;28;20089;-54
2022/04/09 08:37:03;;;;;;;21.15;9.93;;;;;;;6.35;77.42;101059.28;5090374;28;20028;-53
2022/04/09 08:39:29;;;;;;;18.75;8.80;;;;;;;6.09;76.54;101127.91;5090322;28;20452;-51
2022/04/09 08:41:55;;;;;;;14.55;9.43;;;;;;;5.17;77.69;101095.25;5091198;28;20032;-49
2022/04/09 08:44:21;;;;;;;14.93;8.75;;;;;;;4.53;78.93;101086.78;5091245;28;20024;-53
2022/04/09 08:46:47;;;;;;;16.67;9.43;;;;;;;4.00;80.06;101069.25;5091643;28;20499;-49
2022/04/09 08:49:13;;;;;;;14.77;9.45;;;;;;;3.97;79.27;101073.34;5091421;28;20115;-53
2022/04/09 08:51:39;;;;;;;14.32;9.07;;;;;;;4.02;80.56;101081.59;5091206;28;20028;-50
2022/04/09 08:54:04;;;;;;;14.93;9.20;;;;;;;4.06;81.32;101084.66;5090175;28;20032;-51
2022/04/09 08:56:33;;;;;;;14.57;8.80;;;;;;;4.12;79.86;101086.38;5091144;28;20024;-53
2022/04/09 08:58:59;;;;;;;16.23;8.75;;;;;;;4.15;80.48;101105.03;5091477;28;20169;-50
2022/04/09 09:01:25;;;;;;;16.50;8.80;;;;;;;4.30;83.61;101098.06;5090457;28;20128;-51
2022/04/09 09:03:51;;;;;;;17.48;9.45;;;;;;;4.46;81.19;101099.06;5090367;28;20043;-51
2022/04/09 09:06:32;;;;;;;13.10;8.63;;;;;;;4.59;79.92;101100.53;5071934;28;20156;-54
2022/04/09 09:08:59;;;;;;;14.07;8.27;;;;;;;4.67;78.69;101097.31;5090071;28;20071;-52
2022/04/09 09:11:29;;;;;;;13.00;8.13;;;;;;;4.77;78.63;101094.69;5090598;28;20035;-55
2022/04/09 09:14:00;;;;;;;11.73;7.70;;;;;;;4.89;74.90;101104.66;5090168;28;20028;-53
2022/04/09 09:16:27;;;;;;;15.10;7.90;;;;;;;5.05;75.57;101105.59;5090142;28;20039;-50
2022/04/09 09:18:55;;;;;;;13.88;8.00;;;;;;;5.31;76.18;101110.19;5090100;28;20103;-50
2022/04/09 09:21:23;;;;;;;11.60;7.20;;;;;;;5.58;73.74;101127.59;5090350;28;20107;-53
2022/04/09 09:23:49;;;;;;;13.73;7.43;;;;;;;5.74;71.46;101126.63;5090434;28;20500;-52
2022/04/09 09:26:20;;;;;;;16.23;8.25;;;;;;;5.87;70.47;101139.03;5090179;28;20032;-49
2022/04/09 09:28:57;;;;;;;12.00;7.43;;;;;;;5.97;69.55;101151.16;5090102;28;20135;-54
2022/04/09 09:31:42;;;;;;;11.93;7.10;;;;;;;5.90;69.29;101152.22;5090231;28;20036;-54
2022/04/09 09:34:12;;;;;;;10.95;7.50;;;;;;;5.72;67.18;101145.25;5090041;28;20107;-53
2022/04/09 09:36:40;;;;;;;9.45;7.40;;;;;;;5.38;67.53;101150.25;5090044;28;20046;-54
2022/04/09 09:39:06;;;;;;;10.15;7.50;;;;;;;5.25;68.01;101140.56;5090194;28;20028;-54
2022/04/09 09:41:31;;;;;;;10.15;7.15;;;;;;;5.15;67.98;101135.81;5083586;28;20035;-54
2022/04/09 09:44:06;;;;;;;10.52;7.32;;;;;;;5.18;68.92;101131.75;5071436;28;20032;-54
2022/04/09 09:46:32;;;;;;;12.20;7.20;;;;;;;5.39;68.29;101122.53;5069827;28;20098;-55
2022/04/09 09:48:58;;;;;;;10.70;7.22;;;;;;;5.70;65.22;101133.72;5077034;28;20044;-52
2022/04/09 09:51:24;;;;;;;12.05;7.13;;;;;;;5.99;65.83;101138.84;5084187;28;20416;-53
2022/04/09 09:54:16;;;;;;;11.80;7.00;;;;;;;6.24;65.57;101126.28;5073256;28;20020;-54
2022/04/09 09:56:44;;;;;;;11.52;6.95;;;;;;;6.51;66.10;101133.53;5073003;28;20147;-54
2022/04/09 09:59:11;;;;;;;13.25;7.38;;;;;;;6.62;65.73;101123.34;5055087;28;20115;-54
2022/04/09 10:01:42;;;;;;;14.65;7.20;;;;;;;6.78;67.05;101136.00;5073010;28;20098;-52
2022/04/09 10:04:09;;;;;;;14.85;7.47;;;;;;;6.99;66.78;101136.84;5076543;28;20087;-52
2022/04/09 10:06:36;;;;;;;13.57;6.97;;;;;;;7.16;67.28;101124.75;5081775;28;20127;-54
2022/04/09 10:09:05;;;;;;;13.80;7.07;;;;;;;7.27;66.87;101126.41;5073214;28;20039;-54
2022/04/09 10:11:34;;;;;;;17.15;7.72;;;;;;;7.44;66.72;101130.78;5073073;28;20040;-53
2022/04/09 10:14:01;;;;;;;14.30;7.30;;;;;;;7.66;64.85;101130.47;5073343;28;20397;-55
2022/04/09 10:16:28;;;;;;;16.95;8.48;;;;;;;7.93;64.53;101130.09;5073130;28;20060;-54
2022/04/09 10:18:58;;;;;;;15.32;7.75;;;;;;;8.06;63.25;101128.66;5072880;28;20035;-53
2022/04/09 10:21:24;;;;;;;16.10;7.88;;;;;;;8.13;61.75;101117.31;5072907;28;20033;-55
2022/04/09 10:23:52;;;;;;;17.95;7.53;;;;;;;8.25;62.55;101108.75;5072901;28;20029;-56
2022/04/09 10:26:17;;;;;;;15.15;8.20;;;;;;;8.51;59.85;101116.88;5072769;28;20432;-55
2022/04/09 10:28:44;;;;;;;14.00;7.47;;;;;;;8.58;58.72;101117.38;5072728;28;20030;-53
2022/04/09 10:31:40;;;;;;;16.15;7.68;;;;;;;8.58;60.26;101117.38;5072770;28;20074;-54
2022/04/09 10:34:15;;;;;;;13.85;7.68;;;;;;;8.46;59.34;101131.50;5054512;28;20041;-55
2022/04/09 10:36:40;;;;;;;17.25;8.00;;;;;;;8.28;59.32;101124.69;5076422;28;20478;-54
2022/04/09 10:39:40;;;;;;;12.00;6.77;;;;;;;8.45;57.85;101124.31;5071900;28;20112;-55
2022/04/09 10:42:06;;;;;;;13.77;7.40;;;;;;;8.50;54.56;101129.81;5092840;28;20274;-55
2022/04/09 10:44:44;;;;;;;16.27;7.28;;;;;;;8.61;54.17;101121.50;5087643;28;20032;-53
2022/04/09 10:47:13;;;;;;;16.15;6.93;;;;;;;8.60;51.21;101123.44;5092764;28;20074;-53
2022/04/09 10:49:38;;;;;;;11.50;6.90;;;;;;;8.35;49.84;101119.72;5083966;28;20036;-53
2022/04/09 10:52:14;;;;;;;12.55;6.28;;;;;;;8.53;52.53;101114.66;5076917;28;20323;-54
2022/04/09 10:55:03;;;;;;;14.65;7.20;;;;;;;8.47;52.01;101130.41;5080505;28;20119;-57
2022/04/09 10:57:28;;;;;;;12.85;6.80;;;;;;;8.64;49.12;101132.81;5079637;28;20107;-54
2022/04/09 10:59:59;;;;;;;11.82;6.68;;;;;;;8.72;48.69;101134.94;5091683;28;20111;-52
2022/04/09 11:02:26;;;;;;;12.70;5.85;;;;;;;8.79;46.47;101134.59;5072581;28;20037;-52
2022/04/09 11:04:52;;;;;;;12.55;6.80;;;;;;;8.64;45.21;101129.19;5076822;28;20077;-52
2022/04/09 11:07:18;;;;;;;8.60;5.88;;;;;;;8.88;45.52;101135.63;5092391;28;20048;-56
2022/04/09 11:09:54;;;;;;;11.18;6.47;;;;;;;9.01;46.13;101139.72;5091798;28;20035;-53
2022/04/09 11:12:39;;;;;;;12.43;6.75;;;;;;;9.32;47.03;101122.03;5092453;28;20082;-55
2022/04/09 11:15:14;;;;;;;14.27;6.90;;;;;;;9.18;45.71;101130.19;5091330;28;20103;-53
2022/04/09 11:17:45;;;;;;;10.23;6.40;;;;;;;9.25;45.16;101133.41;5090286;28;20029;-53
2022/04/09 11:20:18;;;;;;;11.88;6.50;;;;;;;9.35;45.32;101127.81;5085127;28;20101;-49
2022/04/09 11:22:51;;;;;;;12.82;6.45;;;;;;;9.31;44.70;101136.97;5071724;28;20508;-53